sensor_id;sensor_type;location;lat;lon;timestamp;temperature;humidity
15705;DHT22;7952;48.396;12.806;2023-03-20T00:00:49;12.20;48.30
15705;DHT22;7952;48.396;12.806;2023-03-20T00:03:16;12.20;48.20
15705;DHT22;7952;48.396;12.806;2023-03-20T00:05:42;12.20;48.20
15705;DHT22;7952;48.396;12.806;2023-03-20T00:08:08;12.20;48.20
15705;DHT22;7952;48.396;12.806;2023-03-20T00:10:41;12.20;48.20
15705;DHT22;7952;48.396;12.806;2023-03-20T00:13:23;12.30;48.30
15705;DHT22;7952;48.396;12.806;2023-03-20T00:15:49;12.30;48.30
15705;DHT22;7952;48.396;12.806;2023-03-20T00:18:17;12.30;48.30
15705;DHT22;7952;48.396;12.806;2023-03-20T00:20:50;12.30;48.20
15705;DHT22;7952;48.396;12.806;2023-03-20T00:23:16;12.30;48.20
15705;DHT22;7952;48.396;12.806;2023-03-20T00:25:44;12.40;48.30
15705;DHT22;7952;48.396;12.806;2023-03-20T00:28:38;12.40;48.30
15705;DHT22;7952;48.396;12.806;2023-03-20T00:31:26;12.40;48.30
15705;DHT22;7952;48.396;12.806;2023-03-20T00:33:54;12.40;48.30
15705;DHT22;7952;48.396;12.806;2023-03-20T00:36:20;12.40;48.30
15705;DHT22;7952;48.396;12.806;2023-03-20T00:38:46;12.40;48.20
15705;DHT22;7952;48.396;12.806;2023-03-20T00:43:55;12.50;48.40
15705;DHT22;7952;48.396;12.806;2023-03-20T00:46:21;12.40;48.30
15705;DHT22;7952;48.396;12.806;2023-03-20T00:48:47;12.40;48.30
15705;DHT22;7952;48.396;12.806;2023-03-20T00:51:16;12.40;48.30
15705;DHT22;7952;48.396;12.806;2023-03-20T00:53:42;12.50;48.40
15705;DHT22;7952;48.396;12.806;2023-03-20T00:56:26;12.50;48.40
15705;DHT22;7952;48.396;12.806;2023-03-20T00:58:52;12.40;48.90
15705;DHT22;7952;48.396;12.806;2023-03-20T01:01:18;12.40;48.30
15705;DHT22;7952;48.396;12.806;2023-03-20T01:03:44;12.40;48.40
15705;DHT22;7952;48.396;12.806;2023-03-20T01:06:11;12.40;48.40
15705;DHT22;7952;48.396;12.806;2023-03-20T01:08:37;12.30;48.30
15705;DHT22;7952;48.396;12.806;2023-03-20T01:11:03;12.30;48.40
15705;DHT22;7952;48.396;12.806;2023-03-20T01:13:30;12.30;48.50
15705;DHT22;7952;48.396;12.806;2023-03-20T01:15:57;12.30;48.50
15705;DHT22;7952;48.396;12.806;2023-03-20T01:18:25;12.30;48.50
15705;DHT22;7952;48.396;12.806;2023-03-20T01:20:51;12.20;48.50
15705;DHT22;7952;48.396;12.806;2023-03-20T01:23:17;12.20;48.50
15705;DHT22;7952;48.396;12.806;2023-03-20T01:25:44;12.30;48.70
15705;DHT22;7952;48.396;12.806;2023-03-20T01:28:20;12.20;48.60
15705;DHT22;7952;48.396;12.806;2023-03-20T01:30:47;12.20;49.20
15705;DHT22;7952;48.396;12.806;2023-03-20T01:33:15;12.20;48.60
15705;DHT22;7952;48.396;12.806;2023-03-20T01:35:42;12.20;48.60
15705;DHT22;7952;48.396;12.806;2023-03-20T01:38:22;12.20;48.60
15705;DHT22;7952;48.396;12.806;2023-03-20T01:43:30;12.20;48.70
15705;DHT22;7952;48.396;12.806;2023-03-20T01:51:18;12.20;48.80
15705;DHT22;7952;48.396;12.806;2023-03-20T01:53:50;12.20;48.80
15705;DHT22;7952;48.396;12.806;2023-03-20T01:56:19;12.20;48.80
15705;DHT22;7952;48.396;12.806;2023-03-20T01:58:48;12.20;48.80
15705;DHT22;7952;48.396;12.806;2023-03-20T02:01:15;12.20;48.80
15705;DHT22;7952;48.396;12.806;2023-03-20T02:03:44;12.10;48.80
15705;DHT22;7952;48.396;12.806;2023-03-20T02:06:11;12.10;48.80
15705;DHT22;7952;48.396;12.806;2023-03-20T02:08:45;12.10;48.80
15705;DHT22;7952;48.396;12.806;2023-03-20T02:11:11;12.10;49.40
15705;DHT22;7952;48.396;12.806;2023-03-20T02:13:38;12.00;48.80
15705;DHT22;7952;48.396;12.806;2023-03-20T02:16:08;12.00;48.80
15705;DHT22;7952;48.396;12.806;2023-03-20T02:18:35;12.00;48.90
15705;DHT22;7952;48.396;12.806;2023-03-20T02:27:19;11.90;49.00
15705;DHT22;7952;48.396;12.806;2023-03-20T02:32:59;11.90;49.10
15705;DHT22;7952;48.396;12.806;2023-03-20T02:36:30;11.90;49.10
15705;DHT22;7952;48.396;12.806;2023-03-20T02:41:31;11.90;49.10
15705;DHT22;7952;48.396;12.806;2023-03-20T02:44:11;11.90;49.10
15705;DHT22;7952;48.396;12.806;2023-03-20T02:47:02;11.90;49.10
15705;DHT22;7952;48.396;12.806;2023-03-20T02:49:52;12.00;49.30
15705;DHT22;7952;48.396;12.806;2023-03-20T02:55:27;12.00;49.20
15705;DHT22;7952;48.396;12.806;2023-03-20T02:58:11;12.00;49.20
15705;DHT22;7952;48.396;12.806;2023-03-20T03:00:51;12.00;49.20
15705;DHT22;7952;48.396;12.806;2023-03-20T03:03:26;12.00;49.20
15705;DHT22;7952;48.396;12.806;2023-03-20T03:05:57;12.00;49.30
15705;DHT22;7952;48.396;12.806;2023-03-20T03:08:27;12.00;49.20
15705;DHT22;7952;48.396;12.806;2023-03-20T03:11:03;12.10;49.40
15705;DHT22;7952;48.396;12.806;2023-03-20T03:13:32;12.10;49.30
15705;DHT22;7952;48.396;12.806;2023-03-20T03:16:04;12.10;49.30
15705;DHT22;7952;48.396;12.806;2023-03-20T03:18:32;12.10;49.40
15705;DHT22;7952;48.396;12.806;2023-03-20T03:21:01;12.10;49.40
15705;DHT22;7952;48.396;12.806;2023-03-20T03:23:31;12.10;49.40
15705;DHT22;7952;48.396;12.806;2023-03-20T03:25:58;12.10;49.40
15705;DHT22;7952;48.396;12.806;2023-03-20T03:28:38;12.10;49.40
15705;DHT22;7952;48.396;12.806;2023-03-20T03:31:08;12.10;49.40
15705;DHT22;7952;48.396;12.806;2023-03-20T03:33:38;12.10;49.40
15705;DHT22;7952;48.396;12.806;2023-03-20T03:36:20;12.10;49.40
15705;DHT22;7952;48.396;12.806;2023-03-20T03:39:11;12.20;49.50
15705;DHT22;7952;48.396;12.806;2023-03-20T03:42:08;12.20;49.50
15705;DHT22;7952;48.396;12.806;2023-03-20T03:44:50;12.20;49.50
15705;DHT22;7952;48.396;12.806;2023-03-20T03:47:21;12.20;49.50
15705;DHT22;7952;48.396;12.806;2023-03-20T03:49:52;12.20;49.50
15705;DHT22;7952;48.396;12.806;2023-03-20T03:52:22;12.20;49.60
15705;DHT22;7952;48.396;12.806;2023-03-20T03:54:56;12.20;49.60
15705;DHT22;7952;48.396;12.806;2023-03-20T03:57:49;12.20;49.60
15705;DHT22;7952;48.396;12.806;2023-03-20T04:00:31;12.20;49.60
15705;DHT22;7952;48.396;12.806;2023-03-20T04:02:58;12.20;49.60
15705;DHT22;7952;48.396;12.806;2023-03-20T04:05:27;12.20;49.60
15705;DHT22;7952;48.396;12.806;2023-03-20T04:07:57;12.20;49.70
15705;DHT22;7952;48.396;12.806;2023-03-20T04:10:24;12.20;49.70
15705;DHT22;7952;48.396;12.806;2023-03-20T04:12:50;12.20;49.70
15705;DHT22;7952;48.396;12.806;2023-03-20T04:15:16;12.20;49.80
15705;DHT22;7952;48.396;12.806;2023-03-20T04:17:42;12.20;49.80
15705;DHT22;7952;48.396;12.806;2023-03-20T04:20:09;12.20;49.80
15705;DHT22;7952;48.396;12.806;2023-03-20T04:22:39;12.20;49.80
15705;DHT22;7952;48.396;12.806;2023-03-20T04:25:06;12.20;49.80
15705;DHT22;7952;48.396;12.806;2023-03-20T04:27:33;12.10;49.80
15705;DHT22;7952;48.396;12.806;2023-03-20T04:30:12;12.10;49.80
15705;DHT22;7952;48.396;12.806;2023-03-20T04:32:37;12.10;49.90
15705;DHT22;7952;48.396;12.806;2023-03-20T04:35:04;12.10;49.90
15705;DHT22;7952;48.396;12.806;2023-03-20T04:37:30;12.10;49.90
15705;DHT22;7952;48.396;12.806;2023-03-20T04:39:56;12.10;50.00
15705;DHT22;7952;48.396;12.806;2023-03-20T04:42:21;12.10;50.00
15705;DHT22;7952;48.396;12.806;2023-03-20T04:44:47;12.10;50.00
15705;DHT22;7952;48.396;12.806;2023-03-20T04:47:12;12.00;50.00
15705;DHT22;7952;48.396;12.806;2023-03-20T04:49:38;12.00;50.00
15705;DHT22;7952;48.396;12.806;2023-03-20T04:52:04;12.00;50.00
15705;DHT22;7952;48.396;12.806;2023-03-20T04:54:30;12.00;50.00
15705;DHT22;7952;48.396;12.806;2023-03-20T04:56:55;12.00;50.10
15705;DHT22;7952;48.396;12.806;2023-03-20T04:59:21;12.00;50.10
15705;DHT22;7952;48.396;12.806;2023-03-20T05:01:47;12.00;50.20
15705;DHT22;7952;48.396;12.806;2023-03-20T05:04:12;12.00;50.20
15705;DHT22;7952;48.396;12.806;2023-03-20T05:06:38;12.00;50.30
15705;DHT22;7952;48.396;12.806;2023-03-20T05:09:04;11.90;50.20
15705;DHT22;7952;48.396;12.806;2023-03-20T05:11:30;11.90;50.30
15705;DHT22;7952;48.396;12.806;2023-03-20T05:14:05;11.90;50.30
15705;DHT22;7952;48.396;12.806;2023-03-20T05:16:31;11.90;50.40
15705;DHT22;7952;48.396;12.806;2023-03-20T05:19:06;11.80;50.30
15705;DHT22;7952;48.396;12.806;2023-03-20T05:21:32;11.80;50.30
15705;DHT22;7952;48.396;12.806;2023-03-20T05:23:57;11.80;50.40
15705;DHT22;7952;48.396;12.806;2023-03-20T05:26:23;11.80;50.40
15705;DHT22;7952;48.396;12.806;2023-03-20T05:28:49;11.80;50.50
15705;DHT22;7952;48.396;12.806;2023-03-20T05:31:14;11.70;50.40
15705;DHT22;7952;48.396;12.806;2023-03-20T05:33:40;11.70;50.50
15705;DHT22;7952;48.396;12.806;2023-03-20T05:36:09;11.70;50.50
15705;DHT22;7952;48.396;12.806;2023-03-20T05:38:35;11.70;50.50
15705;DHT22;7952;48.396;12.806;2023-03-20T05:41:01;11.70;50.60
15705;DHT22;7952;48.396;12.806;2023-03-20T05:43:27;11.70;50.60
15705;DHT22;7952;48.396;12.806;2023-03-20T05:45:54;11.70;50.60
15705;DHT22;7952;48.396;12.806;2023-03-20T05:48:21;11.70;50.70
15705;DHT22;7952;48.396;12.806;2023-03-20T05:50:47;11.80;50.80
15705;DHT22;7952;48.396;12.806;2023-03-20T05:53:13;11.80;50.80
15705;DHT22;7952;48.396;12.806;2023-03-20T05:55:38;11.80;50.70
15705;DHT22;7952;48.396;12.806;2023-03-20T05:58:06;11.90;50.80
15705;DHT22;7952;48.396;12.806;2023-03-20T06:00:31;11.90;50.80
15705;DHT22;7952;48.396;12.806;2023-03-20T06:03:00;12.00;50.80
15705;DHT22;7952;48.396;12.806;2023-03-20T06:05:25;12.00;50.80
15705;DHT22;7952;48.396;12.806;2023-03-20T06:07:51;12.10;50.90
15705;DHT22;7952;48.396;12.806;2023-03-20T06:10:17;12.30;51.10
15705;DHT22;7952;48.396;12.806;2023-03-20T06:12:45;12.40;50.90
15705;DHT22;7952;48.396;12.806;2023-03-20T06:15:11;12.40;50.70
15705;DHT22;7952;48.396;12.806;2023-03-20T06:17:37;12.50;50.70
15705;DHT22;7952;48.396;12.806;2023-03-20T06:20:03;12.50;50.60
15705;DHT22;7952;48.396;12.806;2023-03-20T06:22:30;12.60;50.70
15705;DHT22;7952;48.396;12.806;2023-03-20T06:24:55;12.60;50.60
15705;DHT22;7952;48.396;12.806;2023-03-20T06:27:22;12.70;50.70
15705;DHT22;7952;48.396;12.806;2023-03-20T06:29:47;12.70;50.70
15705;DHT22;7952;48.396;12.806;2023-03-20T06:32:13;12.80;50.70
15705;DHT22;7952;48.396;12.806;2023-03-20T06:38:15;12.80;50.60
15705;DHT22;7952;48.396;12.806;2023-03-20T06:41:20;12.80;50.60
15705;DHT22;7952;48.396;12.806;2023-03-20T06:44:24;12.80;50.60
15705;DHT22;7952;48.396;12.806;2023-03-20T06:46:51;12.90;50.70
15705;DHT22;7952;48.396;12.806;2023-03-20T06:49:26;12.90;50.70
15705;DHT22;7952;48.396;12.806;2023-03-20T06:51:52;12.90;50.70
15705;DHT22;7952;48.396;12.806;2023-03-20T06:54:20;12.90;50.70
15705;DHT22;7952;48.396;12.806;2023-03-20T06:56:47;12.90;50.70
15705;DHT22;7952;48.396;12.806;2023-03-20T07:03:12;12.90;50.80
15705;DHT22;7952;48.396;12.806;2023-03-20T07:05:39;13.00;50.80
15705;DHT22;7952;48.396;12.806;2023-03-20T07:08:05;13.00;50.80
15705;DHT22;7952;48.396;12.806;2023-03-20T07:10:35;13.00;50.80
15705;DHT22;7952;48.396;12.806;2023-03-20T07:13:04;13.00;50.80
15705;DHT22;7952;48.396;12.806;2023-03-20T07:15:30;13.00;50.80
15705;DHT22;7952;48.396;12.806;2023-03-20T07:17:56;13.00;50.80
15705;DHT22;7952;48.396;12.806;2023-03-20T07:20:22;13.10;50.90
15705;DHT22;7952;48.396;12.806;2023-03-20T07:22:50;13.10;51.00
15705;DHT22;7952;48.396;12.806;2023-03-20T07:25:17;13.10;50.90
15705;DHT22;7952;48.396;12.806;2023-03-20T07:27:47;13.10;50.90
15705;DHT22;7952;48.396;12.806;2023-03-20T07:33:54;13.10;51.00
15705;DHT22;7952;48.396;12.806;2023-03-20T07:36:25;13.10;51.00
15705;DHT22;7952;48.396;12.806;2023-03-20T07:38:54;13.10;51.10
15705;DHT22;7952;48.396;12.806;2023-03-20T07:41:20;13.10;51.10
15705;DHT22;7952;48.396;12.806;2023-03-20T07:47:45;13.10;51.10
15705;DHT22;7952;48.396;12.806;2023-03-20T07:50:12;13.20;51.30
15705;DHT22;7952;48.396;12.806;2023-03-20T07:56:22;13.30;51.40
15705;DHT22;7952;48.396;12.806;2023-03-20T08:06:28;13.70;51.70
15705;DHT22;7952;48.396;12.806;2023-03-20T08:16:05;14.50;51.90
15705;DHT22;7952;48.396;12.806;2023-03-20T08:18:53;15.00;52.10
15705;DHT22;7952;48.396;12.806;2023-03-20T09:37:33;16.30;51.40
15705;DHT22;7952;48.396;12.806;2023-03-20T10:08:11;16.70;51.10
15705;DHT22;7952;48.396;12.806;2023-03-20T11:29:36;16.00;51.10
15705;DHT22;7952;48.396;12.806;2023-03-20T16:48:38;15.70;50.30
15705;DHT22;7952;48.396;12.806;2023-03-20T17:41:59;14.50;50.50
15705;DHT22;7952;48.396;12.806;2023-03-20T17:45:28;14.40;50.50
15705;DHT22;7952;48.396;12.806;2023-03-20T17:48:32;14.30;50.60
15705;DHT22;7952;48.396;12.806;2023-03-20T17:51:19;14.20;50.70
15705;DHT22;7952;48.396;12.806;2023-03-20T18:23:48;13.40;51.00
15705;DHT22;7952;48.396;12.806;2023-03-20T18:26:36;13.30;50.90
15705;DHT22;7952;48.396;12.806;2023-03-20T18:29:11;13.40;51.00
15705;DHT22;7952;48.396;12.806;2023-03-20T18:42:03;13.50;50.90
15705;DHT22;7952;48.396;12.806;2023-03-20T18:48:18;13.50;50.80
15705;DHT22;7952;48.396;12.806;2023-03-20T18:54:28;13.50;50.60
15705;DHT22;7952;48.396;12.806;2023-03-20T19:07:52;13.50;50.50
15705;DHT22;7952;48.396;12.806;2023-03-20T19:17:42;13.50;50.50
15705;DHT22;7952;48.396;12.806;2023-03-20T19:27:51;13.40;50.50
15705;DHT22;7952;48.396;12.806;2023-03-20T19:30:27;13.40;50.50
15705;DHT22;7952;48.396;12.806;2023-03-20T19:53:06;13.20;50.60
15705;DHT22;7952;48.396;12.806;2023-03-20T19:55:36;13.20;50.50
15705;DHT22;7952;48.396;12.806;2023-03-20T19:58:03;13.20;50.60
15705;DHT22;7952;48.396;12.806;2023-03-20T20:00:46;13.20;50.60
15705;DHT22;7952;48.396;12.806;2023-03-20T20:03:41;13.20;50.60
15705;DHT22;7952;48.396;12.806;2023-03-20T20:06:07;13.20;50.50
15705;DHT22;7952;48.396;12.806;2023-03-20T20:23:32;13.20;50.50
15705;DHT22;7952;48.396;12.806;2023-03-20T20:25:58;13.20;50.50
15705;DHT22;7952;48.396;12.806;2023-03-20T20:29:18;13.20;50.50
15705;DHT22;7952;48.396;12.806;2023-03-20T20:32:03;13.10;50.40
15705;DHT22;7952;48.396;12.806;2023-03-20T20:34:32;13.10;50.50
15705;DHT22;7952;48.396;12.806;2023-03-20T20:56:38;13.00;50.40
15705;DHT22;7952;48.396;12.806;2023-03-20T20:59:26;13.10;50.50
15705;DHT22;7952;48.396;12.806;2023-03-20T21:01:52;13.00;50.40
15705;DHT22;7952;48.396;12.806;2023-03-20T21:07:43;13.10;50.50
15705;DHT22;7952;48.396;12.806;2023-03-20T21:10:51;13.10;50.50
15705;DHT22;7952;48.396;12.806;2023-03-20T21:13:22;13.10;50.50
15705;DHT22;7952;48.396;12.806;2023-03-20T21:15:56;13.00;50.30
15705;DHT22;7952;48.396;12.806;2023-03-20T21:22:13;13.00;50.30
15705;DHT22;7952;48.396;12.806;2023-03-20T21:24:49;13.00;50.30
15705;DHT22;7952;48.396;12.806;2023-03-20T21:27:28;13.00;50.40
15705;DHT22;7952;48.396;12.806;2023-03-20T21:39:18;12.90;50.30
15705;DHT22;7952;48.396;12.806;2023-03-20T21:41:44;12.80;50.30
15705;DHT22;7952;48.396;12.806;2023-03-20T21:44:56;12.70;50.50
15705;DHT22;7952;48.396;12.806;2023-03-20T21:47:09;12.70;50.30
15705;DHT22;7952;48.396;12.806;2023-03-20T21:49:53;12.60;50.40
15705;DHT22;7952;48.396;12.806;2023-03-20T21:52:21;12.60;50.40
15705;DHT22;7952;48.396;12.806;2023-03-20T21:54:47;12.50;50.50
15705;DHT22;7952;48.396;12.806;2023-03-20T21:57:24;12.40;50.40
15705;DHT22;7952;48.396;12.806;2023-03-20T21:59:49;12.40;50.50
15705;DHT22;7952;48.396;12.806;2023-03-20T22:02:18;12.30;50.50
15705;DHT22;7952;48.396;12.806;2023-03-20T22:04:45;12.30;50.50
15705;DHT22;7952;48.396;12.806;2023-03-20T22:07:11;12.30;50.50
15705;DHT22;7952;48.396;12.806;2023-03-20T22:09:37;12.20;50.50
15705;DHT22;7952;48.396;12.806;2023-03-20T22:12:03;12.20;50.50
15705;DHT22;7952;48.396;12.806;2023-03-20T22:14:29;12.20;50.50
15705;DHT22;7952;48.396;12.806;2023-03-20T22:16:57;12.10;50.50
15705;DHT22;7952;48.396;12.806;2023-03-20T22:19:42;12.10;50.50
15705;DHT22;7952;48.396;12.806;2023-03-20T22:22:07;12.10;50.50
15705;DHT22;7952;48.396;12.806;2023-03-20T22:24:33;12.00;50.50
15705;DHT22;7952;48.396;12.806;2023-03-20T22:27:01;12.00;50.50
15705;DHT22;7952;48.396;12.806;2023-03-20T22:29:27;12.00;50.50
15705;DHT22;7952;48.396;12.806;2023-03-20T22:31:53;11.90;50.50
15705;DHT22;7952;48.396;12.806;2023-03-20T22:34:19;11.90;50.60
15705;DHT22;7952;48.396;12.806;2023-03-20T22:36:48;11.80;50.60
15705;DHT22;7952;48.396;12.806;2023-03-20T22:39:16;11.80;50.60
15705;DHT22;7952;48.396;12.806;2023-03-20T22:41:41;11.80;50.70
15705;DHT22;7952;48.396;12.806;2023-03-20T22:44:08;11.70;50.60
15705;DHT22;7952;48.396;12.806;2023-03-20T22:46:34;11.70;50.70
15705;DHT22;7952;48.396;12.806;2023-03-20T22:49:00;11.70;50.70
15705;DHT22;7952;48.396;12.806;2023-03-20T22:51:25;11.70;50.70
15705;DHT22;7952;48.396;12.806;2023-03-20T22:54:11;11.60;50.70
15705;DHT22;7952;48.396;12.806;2023-03-20T23:00:59;11.60;50.70
15705;DHT22;7952;48.396;12.806;2023-03-20T23:03:38;11.60;50.70
15705;DHT22;7952;48.396;12.806;2023-03-20T23:16:35;11.60;50.60
15705;DHT22;7952;48.396;12.806;2023-03-20T23:35:29;11.60;50.70
15705;DHT22;7952;48.396;12.806;2023-03-20T23:38:23;11.60;50.70
15705;DHT22;7952;48.396;12.806;2023-03-20T23:40:50;11.60;50.60
15705;DHT22;7952;48.396;12.806;2023-03-20T23:43:45;11.60;50.60
15705;DHT22;7952;48.396;12.806;2023-03-20T23:46:11;11.70;50.60
15705;DHT22;7952;48.396;12.806;2023-03-20T23:48:42;11.70;50.60
15705;DHT22;7952;48.396;12.806;2023-03-20T23:54:46;11.70;50.60
15705;DHT22;7952;48.396;12.806;2023-03-20T23:57:12;11.70;50.60
